Time;durP1;ratioP1;P1;durP2;ratioP2;P2;SDS_P1;SDS_P2;PMS_P1;PMS_P2;Temp;Humidity;BMP_temperature;BMP_pressure;BME280_temperature;BME280_humidity;BME280_pressure;Samples;Min_cycle;Max_cycle;Signal;HPM_P1;HPM_P2
2023/12/13 00:01:25;;;;;;;30.73;12.77;;;7.90;99.90;;;;;;5004621;28;20488;-34
2023/12/13 00:03:52;;;;;;;28.00;13.65;;;7.90;99.90;;;;;;5006216;28;20052;-34
2023/12/13 00:06:18;;;;;;;30.42;13.93;;;7.90;99.90;;;;;;5006439;28;20123;-34
2023/12/13 00:08:44;;;;;;;31.48;14.68;;;7.90;99.90;;;;;;5008845;28;20488;-34
2023/12/13 00:11:09;;;;;;;23.17;11.57;;;7.90;99.90;;;;;;5005553;28;20091;-34
2023/12/13 00:13:35;;;;;;;30.35;13.63;;;7.90;99.90;;;;;;5005434;28;20053;-34
2023/12/13 00:16:01;;;;;;;25.10;13.73;;;8.00;99.90;;;;;;5008421;28;20494;-34
2023/12/13 00:18:28;;;;;;;25.08;12.77;;;7.90;99.90;;;;;;5006317;28;20082;-34
2023/12/13 00:20:53;;;;;;;24.80;11.82;;;8.00;99.90;;;;;;5005672;28;20057;-34
2023/12/13 00:23:19;;;;;;;21.45;11.27;;;8.00;99.90;;;;;;5012026;28;20048;-34
2023/12/13 00:25:45;;;;;;;19.30;9.80;;;8.00;99.90;;;;;;5003291;28;20134;-47
2023/12/13 00:28:10;;;;;;;17.90;8.75;;;7.90;99.90;;;;;;5004640;28;20058;-34
2023/12/13 00:30:36;;;;;;;15.00;8.07;;;7.90;99.90;;;;;;5007681;28;20384;-34
2023/12/13 00:33:02;;;;;;;15.57;7.28;;;7.90;99.90;;;;;;5008195;28;20443;-34
2023/12/13 00:35:27;;;;;;;14.55;7.00;;;7.90;99.90;;;;;;5008774;28;20129;-43
2023/12/13 00:37:54;;;;;;;14.60;7.03;;;7.80;99.90;;;;;;5007677;28;20483;-34
2023/12/13 00:40:22;;;;;;;11.50;5.70;;;7.80;99.90;;;;;;5003965;28;20156;-34
2023/12/13 00:42:48;;;;;;;10.43;6.30;;;7.80;99.90;;;;;;5005552;28;20384;-40
2023/12/13 00:45:14;;;;;;;11.15;5.72;;;7.80;99.90;;;;;;5006393;28;20061;-34
2023/12/13 00:47:41;;;;;;;9.68;5.50;;;7.80;99.90;;;;;;5002446;28;20546;-35
2023/12/13 00:50:08;;;;;;;10.00;5.13;;;7.80;99.90;;;;;;5003672;28;20053;-34
2023/12/13 00:52:34;;;;;;;10.55;5.18;;;7.80;99.90;;;;;;5004676;28;20057;-34
2023/12/13 00:55:01;;;;;;;8.48;4.68;;;7.80;99.90;;;;;;5007924;28;20042;-35
2023/12/13 00:57:27;;;;;;;8.85;4.47;;;7.80;99.90;;;;;;5003886;28;20065;-35
2023/12/13 00:59:52;;;;;;;10.40;4.50;;;7.80;99.90;;;;;;5008660;28;20053;-34
2023/12/13 01:02:18;;;;;;;8.20;4.30;;;7.80;99.90;;;;;;5007068;28;20399;-34
2023/12/13 01:04:44;;;;;;;10.73;4.63;;;7.80;99.90;;;;;;5004291;28;20108;-34
2023/12/13 01:07:10;;;;;;;9.80;4.22;;;7.80;99.90;;;;;;5003867;28;20105;-35
2023/12/13 01:09:36;;;;;;;8.00;4.40;;;7.80;99.90;;;;;;5006789;28;20054;-35
2023/12/13 01:12:02;;;;;;;9.68;4.15;;;7.80;99.90;;;;;;5005063;28;20462;-34
2023/12/13 01:14:28;;;;;;;8.90;4.30;;;7.80;99.90;;;;;;5006063;28;20038;-34
2023/12/13 01:16:54;;;;;;;8.63;4.65;;;7.80;99.90;;;;;;5007582;28;20079;-34
2023/12/13 01:19:20;;;;;;;9.77;4.60;;;7.80;99.90;;;;;;5005121;28;20143;-35
2023/12/13 01:21:46;;;;;;;9.52;4.78;;;7.80;99.90;;;;;;5005923;28;20443;-34
2023/12/13 01:24:11;;;;;;;9.05;4.72;;;7.80;99.90;;;;;;5004210;28;20137;-34
2023/12/13 01:26:37;;;;;;;12.73;4.88;;;7.80;99.90;;;;;;5006909;28;20068;-34
2023/12/13 01:29:03;;;;;;;8.65;4.43;;;7.80;99.90;;;;;;5005321;28;20054;-34
2023/12/13 01:31:28;;;;;;;11.65;4.70;;;7.80;99.90;;;;;;5005093;28;20053;-34
2023/12/13 01:33:54;;;;;;;8.05;4.53;;;7.80;99.90;;;;;;5004719;28;20512;-34
2023/12/13 01:36:20;;;;;;;12.10;5.47;;;7.80;99.90;;;;;;5005848;28;20088;-40
2023/12/13 01:38:45;;;;;;;10.25;4.72;;;7.80;99.90;;;;;;5004528;28;20060;-34
2023/12/13 01:41:11;;;;;;;9.80;4.75;;;7.80;99.90;;;;;;5005127;28;20050;-34
2023/12/13 01:43:37;;;;;;;11.15;5.00;;;7.80;99.90;;;;;;5004679;28;20415;-34
2023/12/13 01:46:02;;;;;;;8.70;5.03;;;7.80;99.90;;;;;;5002961;28;20061;-34
2023/12/13 01:48:29;;;;;;;10.18;5.13;;;7.80;99.90;;;;;;5006440;28;20054;-34
2023/12/13 01:50:55;;;;;;;9.02;5.20;;;7.80;99.90;;;;;;5002368;28;20042;-34
2023/12/13 01:53:23;;;;;;;9.75;4.53;;;7.80;99.90;;;;;;5005097;28;20078;-40
2023/12/13 01:55:50;;;;;;;10.85;5.10;;;7.80;99.90;;;;;;5002041;28;20076;-34
2023/12/13 01:58:18;;;;;;;8.63;4.57;;;7.70;99.90;;;;;;5003445;28;20503;-34
2023/12/13 02:00:45;;;;;;;8.90;4.78;;;7.70;99.90;;;;;;5002835;28;20129;-34
2023/12/13 02:03:11;;;;;;;7.28;4.00;;;7.70;99.90;;;;;;5004051;28;20081;-34
2023/12/13 02:05:38;;;;;;;9.93;4.55;;;7.70;99.90;;;;;;5005768;28;20123;-37
2023/12/13 02:08:04;;;;;;;8.93;4.72;;;7.70;99.90;;;;;;5004454;28;20476;-34
2023/12/13 02:10:30;;;;;;;10.05;4.70;;;7.70;99.90;;;;;;5002885;28;20100;-34
2023/12/13 02:12:56;;;;;;;10.07;5.05;;;7.70;99.90;;;;;;5003632;28;20041;-42
2023/12/13 02:15:22;;;;;;;9.60;4.72;;;7.70;99.90;;;;;;5003167;28;20124;-35
2023/12/13 02:17:49;;;;;;;12.13;5.32;;;7.70;99.90;;;;;;5001912;28;20152;-34
2023/12/13 02:20:15;;;;;;;9.68;5.65;;;7.60;99.90;;;;;;5003370;28;20053;-35
2023/12/13 02:22:40;;;;;;;8.02;4.65;;;7.60;99.90;;;;;;5004929;28;20046;-35
2023/12/13 02:25:14;;;;;;;9.23;4.70;;;7.60;99.90;;;;;;5001782;28;20092;-35
2023/12/13 02:27:41;;;;;;;9.30;5.07;;;7.60;99.90;;;;;;5004994;28;20053;-34
2023/12/13 02:30:08;;;;;;;9.80;5.30;;;7.60;99.90;;;;;;5003870;28;20064;-34
2023/12/13 02:32:33;;;;;;;10.32;5.63;;;7.60;99.90;;;;;;5004310;28;20135;-41
2023/12/13 02:34:59;;;;;;;9.32;5.00;;;7.60;99.90;;;;;;5000309;28;20515;-35
2023/12/13 02:37:25;;;;;;;8.95;5.30;;;7.60;99.90;;;;;;5008041;28;20423;-34
2023/12/13 02:39:50;;;;;;;10.10;5.78;;;7.60;99.90;;;;;;5006238;28;20053;-35
2023/12/13 02:42:16;;;;;;;9.98;5.97;;;7.60;99.90;;;;;;5005409;28;20054;-35
2023/12/13 02:44:43;;;;;;;13.43;6.30;;;7.60;99.90;;;;;;5005476;28;20061;-44
2023/12/13 02:47:10;;;;;;;9.60;5.93;;;7.60;99.90;;;;;;5006055;28;20128;-35
2023/12/13 02:49:35;;;;;;;10.40;5.65;;;7.60;99.90;;;;;;5012787;28;20053;-36
2023/12/13 02:52:01;;;;;;;11.80;6.07;;;7.60;99.90;;;;;;5005214;28;20054;-35
2023/12/13 02:54:27;;;;;;;12.05;6.28;;;7.60;99.90;;;;;;5002959;28;20064;-34
2023/12/13 02:56:52;;;;;;;11.20;6.75;;;7.60;99.90;;;;;;5000944;28;20056;-35
2023/12/13 02:59:18;;;;;;;11.93;5.75;;;7.60;99.90;;;;;;5005435;28;20393;-35
2023/12/13 03:01:44;;;;;;;11.77;6.35;;;7.60;99.90;;;;;;5004410;28;20095;-35
2023/12/13 03:04:09;;;;;;;11.07;6.32;;;7.60;99.90;;;;;;5002734;28;20524;-35
2023/12/13 03:06:35;;;;;;;13.65;6.75;;;7.60;99.90;;;;;;5005488;28;20092;-35
2023/12/13 03:09:00;;;;;;;11.93;6.82;;;7.60;99.90;;;;;;5004290;28;20046;-35
2023/12/13 03:11:27;;;;;;;10.68;6.32;;;7.60;99.90;;;;;;5006997;28;20056;-35
2023/12/13 03:13:53;;;;;;;13.60;7.13;;;7.60;99.90;;;;;;5004463;28;20077;-35
2023/12/13 03:16:18;;;;;;;14.68;6.80;;;7.60;99.90;;;;;;5004538;28;20038;-35
2023/12/13 03:18:44;;;;;;;13.40;6.38;;;7.60;99.90;;;;;;5003514;28;20042;-35
2023/12/13 03:21:10;;;;;;;11.50;6.90;;;7.60;99.90;;;;;;5004884;28;20048;-36
2023/12/13 03:23:35;;;;;;;14.35;7.35;;;7.60;99.90;;;;;;5007103;28;20515;-35
2023/12/13 03:26:01;;;;;;;15.93;7.03;;;7.60;99.90;;;;;;5005016;28;20499;-35
2023/12/13 03:28:27;;;;;;;13.70;6.88;;;7.60;99.90;;;;;;5009125;28;20412;-35
2023/12/13 03:30:52;;;;;;;13.02;7.00;;;7.60;99.90;;;;;;5006050;28;20507;-35
2023/12/13 03:33:18;;;;;;;14.52;8.20;;;7.60;99.90;;;;;;5008319;28;20124;-35
2023/12/13 03:35:44;;;;;;;14.98;7.30;;;7.60;99.90;;;;;;5007264;28;20108;-34
2023/12/13 03:38:10;;;;;;;16.58;7.45;;;7.70;99.90;;;;;;5010199;28;20561;-35
2023/12/13 03:40:36;;;;;;;15.85;7.90;;;7.70;99.90;;;;;;5008788;28;20049;-37
2023/12/13 03:43:02;;;;;;;16.95;8.32;;;7.70;99.90;;;;;;5010761;28;20525;-36
2023/12/13 03:45:27;;;;;;;13.55;7.65;;;7.70;99.90;;;;;;5005215;28;20644;-34
2023/12/13 03:47:53;;;;;;;17.00;8.48;;;7.70;99.90;;;;;;5007002;28;20419;-34
2023/12/13 03:50:20;;;;;;;14.60;7.93;;;7.70;99.90;;;;;;5006071;28;20108;-34
2023/12/13 03:52:45;;;;;;;14.40;8.57;;;7.70;99.90;;;;;;5008505;28;20092;-35
2023/12/13 03:55:12;;;;;;;18.88;8.52;;;7.70;99.90;;;;;;5004933;28;20057;-34
2023/12/13 03:57:39;;;;;;;17.70;8.80;;;7.70;99.90;;;;;;5006673;28;20057;-35
2023/12/13 04:00:06;;;;;;;15.27;8.95;;;7.70;99.90;;;;;;5007851;28;20049;-36
2023/12/13 04:02:32;;;;;;;18.33;9.68;;;7.70;99.90;;;;;;5008105;28;20131;-36
2023/12/13 04:04:58;;;;;;;17.92;9.68;;;7.70;99.90;;;;;;5005249;28;20046;-34
2023/12/13 04:07:24;;;;;;;19.00;9.02;;;7.70;99.90;;;;;;5018846;28;20050;-34
2023/12/13 04:09:49;;;;;;;17.05;9.40;;;7.70;99.90;;;;;;5005596;28;20054;-35
2023/12/13 04:12:16;;;;;;;16.65;9.27;;;7.60;99.90;;;;;;5006851;28;20137;-35
2023/12/13 04:14:42;;;;;;;14.95;8.85;;;7.60;99.90;;;;;;5009066;28;20064;-35
2023/12/13 04:17:08;;;;;;;18.35;9.68;;;7.60;99.90;;;;;;5007355;28;20419;-34
2023/12/13 04:19:33;;;;;;;18.48;9.73;;;7.60;99.90;;;;;;5008571;28;20096;-35
2023/12/13 04:21:59;;;;;;;17.38;9.68;;;7.60;99.90;;;;;;5008032;28;20054;-35
2023/12/13 04:24:25;;;;;;;18.17;9.77;;;7.60;99.90;;;;;;5005728;28;20384;-34
2023/12/13 04:26:50;;;;;;;18.75;9.50;;;7.60;99.90;;;;;;5006117;28;20045;-34
2023/12/13 04:29:16;;;;;;;20.35;10.48;;;7.60;99.90;;;;;;5007303;28;20152;-34
2023/12/13 04:31:43;;;;;;;16.70;9.52;;;7.60;99.90;;;;;;5008783;28;20104;-34
2023/12/13 04:34:08;;;;;;;20.05;10.35;;;7.50;99.90;;;;;;5005205;28;20107;-35
2023/12/13 04:36:34;;;;;;;18.10;9.93;;;7.50;99.90;;;;;;5006666;28;20050;-36
2023/12/13 04:39:00;;;;;;;18.25;9.80;;;7.50;99.90;;;;;;5007374;28;20045;-34
2023/12/13 04:41:25;;;;;;;21.80;11.20;;;7.60;99.90;;;;;;5006030;28;20046;-35
2023/12/13 04:43:51;;;;;;;19.85;9.65;;;7.50;99.90;;;;;;5007194;28;20136;-44
2023/12/13 04:46:17;;;;;;;18.10;9.90;;;7.50;99.90;;;;;;5008188;28;20100;-35
2023/12/13 04:48:43;;;;;;;20.20;10.13;;;7.60;99.90;;;;;;5004322;28;20046;-35
2023/12/13 04:51:09;;;;;;;19.80;9.90;;;7.60;99.90;;;;;;5005661;28;20402;-35
2023/12/13 04:53:35;;;;;;;20.35;10.65;;;7.60;99.90;;;;;;5008014;28;20064;-36
2023/12/13 04:56:01;;;;;;;19.33;10.70;;;7.60;99.90;;;;;;5005281;28;20053;-35
2023/12/13 04:58:27;;;;;;;19.73;10.48;;;7.60;99.90;;;;;;5001991;28;20111;-35
2023/12/13 05:00:52;;;;;;;17.15;9.88;;;7.60;99.90;;;;;;5007241;28;20045;-35
2023/12/13 05:03:18;;;;;;;18.58;10.02;;;7.60;99.90;;;;;;5006185;28;20568;-35
2023/12/13 05:05:44;;;;;;;19.02;10.30;;;7.60;99.90;;;;;;5003833;28;20069;-35
2023/12/13 05:08:12;;;;;;;21.77;11.15;;;7.60;99.90;;;;;;5006484;28;20046;-34
2023/12/13 05:10:43;;;;;;;20.90;10.25;;;7.60;99.90;;;;;;5002215;28;20038;-35
2023/12/13 05:13:09;;;;;;;24.15;11.10;;;7.60;99.90;;;;;;5006041;28;20061;-44
2023/12/13 05:15:35;;;;;;;18.85;9.55;;;7.60;99.90;;;;;;5004059;28;20057;-36
2023/12/13 05:18:01;;;;;;;24.40;11.25;;;7.60;99.90;;;;;;5006058;28;20053;-34
2023/12/13 05:20:27;;;;;;;19.38;10.40;;;7.60;99.90;;;;;;5007234;28;20492;-34
2023/12/13 05:22:53;;;;;;;20.52;10.30;;;7.60;99.90;;;;;;5007772;28;20038;-34
2023/12/13 05:25:20;;;;;;;18.75;10.05;;;7.60;99.90;;;;;;5005886;28;20078;-44
2023/12/13 05:27:45;;;;;;;20.45;11.20;;;7.60;99.90;;;;;;5003014;28;20550;-34
2023/12/13 05:30:11;;;;;;;21.58;10.75;;;7.60;99.90;;;;;;5003447;28;20062;-36
2023/12/13 05:32:37;;;;;;;21.25;10.23;;;7.60;99.90;;;;;;5003173;28;20049;-34
2023/12/13 05:35:03;;;;;;;21.60;11.27;;;7.60;99.90;;;;;;5004904;28;20053;-34
2023/12/13 05:37:29;;;;;;;20.92;11.77;;;7.60;99.90;;;;;;5005280;28;20424;-34
2023/12/13 05:39:54;;;;;;;23.42;11.68;;;7.60;99.90;;;;;;5007231;28;20053;-34
2023/12/13 05:42:20;;;;;;;23.50;11.55;;;7.60;99.90;;;;;;5003222;28;20133;-34
2023/12/13 05:44:46;;;;;;;21.42;11.07;;;7.60;99.90;;;;;;5007736;28;20140;-35
2023/12/13 05:47:13;;;;;;;20.25;11.35;;;7.60;99.90;;;;;;5008851;28;20053;-35
2023/12/13 05:49:39;;;;;;;21.63;11.25;;;7.60;99.90;;;;;;5006198;28;20054;-35
2023/12/13 05:52:06;;;;;;;23.33;12.27;;;7.60;99.90;;;;;;5002350;28;20055;-34
2023/12/13 05:54:32;;;;;;;20.05;10.95;;;7.60;99.90;;;;;;5006898;28;20595;-34
2023/12/13 05:56:59;;;;;;;19.52;11.02;;;7.60;99.90;;;;;;5006213;28;20057;-34
2023/12/13 05:59:24;;;;;;;22.15;11.48;;;7.60;99.90;;;;;;5005032;28;20054;-35
2023/12/13 06:01:50;;;;;;;22.08;11.43;;;7.60;99.90;;;;;;5006401;28;20522;-34
2023/12/13 06:04:16;;;;;;;23.58;11.27;;;7.60;99.90;;;;;;5005556;28;20089;-35
2023/12/13 06:06:45;;;;;;;21.52;11.27;;;7.60;99.90;;;;;;5006481;28;20060;-36
2023/12/13 06:09:11;;;;;;;21.33;12.13;;;7.60;99.90;;;;;;5003372;28;20050;-35
2023/12/13 06:11:37;;;;;;;22.60;11.48;;;7.60;99.90;;;;;;5006047;28;20133;-35
2023/12/13 06:14:02;;;;;;;22.17;11.40;;;7.60;99.90;;;;;;5007022;28;20073;-35
2023/12/13 06:16:28;;;;;;;23.25;11.85;;;7.60;99.90;;;;;;5003702;28;20049;-35
2023/12/13 06:18:54;;;;;;;22.38;11.57;;;7.60;99.90;;;;;;5003554;28;20104;-34
2023/12/13 06:21:20;;;;;;;22.48;11.35;;;7.60;99.90;;;;;;5006268;28;20045;-34
2023/12/13 06:23:45;;;;;;;25.45;12.10;;;7.70;99.90;;;;;;5003437;28;20054;-34
2023/12/13 06:26:11;;;;;;;22.83;11.05;;;7.70;99.90;;;;;;5001038;28;20050;-34
2023/12/13 06:28:37;;;;;;;27.85;12.35;;;7.70;99.90;;;;;;5006757;28;20531;-36
2023/12/13 06:31:02;;;;;;;27.95;12.25;;;7.70;99.90;;;;;;5001504;28;20542;-36
2023/12/13 06:33:29;;;;;;;23.05;11.93;;;7.70;99.90;;;;;;5005185;28;20762;-35
2023/12/13 06:35:55;;;;;;;23.30;12.05;;;7.70;99.90;;;;;;5005184;28;20057;-35
2023/12/13 06:38:21;;;;;;;22.23;12.48;;;7.70;99.90;;;;;;5005762;28;20088;-37
2023/12/13 06:40:47;;;;;;;24.10;12.48;;;7.70;99.90;;;;;;5002936;28;20054;-35
2023/12/13 06:43:13;;;;;;;21.48;11.80;;;7.70;99.90;;;;;;5002747;28;20064;-34
2023/12/13 06:45:38;;;;;;;22.63;12.63;;;7.70;99.90;;;;;;5004724;28;20745;-35
2023/12/13 06:48:06;;;;;;;24.25;11.07;;;7.70;99.90;;;;;;5003329;28;20049;-35
2023/12/13 06:50:32;;;;;;;39.10;26.85;;;7.70;99.90;;;;;;5002802;28;20050;-36
2023/12/13 06:52:58;;;;;;;23.58;12.50;;;7.70;99.90;;;;;;5003956;28;20046;-36
2023/12/13 06:55:24;;;;;;;26.88;14.43;;;7.70;99.90;;;;;;5001874;28;20557;-35
2023/12/13 06:57:50;;;;;;;37.92;26.42;;;7.70;99.90;;;;;;5011556;28;20042;-35
2023/12/13 07:00:21;;;;;;;46.33;38.00;;;7.70;99.90;;;;;;5006042;28;20038;-37
2023/12/13 07:02:47;;;;;;;24.42;13.20;;;7.70;99.90;;;;;;5008682;28;20050;-35
2023/12/13 07:05:13;;;;;;;23.42;13.82;;;7.70;99.90;;;;;;5003714;28;20057;-35
2023/12/13 07:07:39;;;;;;;26.05;14.57;;;7.70;99.90;;;;;;5008266;28;20050;-35
2023/12/13 07:10:05;;;;;;;25.52;15.30;;;7.70;99.90;;;;;;5007513;28;20076;-36
2023/12/13 07:12:30;;;;;;;28.77;16.58;;;7.70;99.90;;;;;;5009581;28;20061;-34
2023/12/13 07:14:56;;;;;;;30.02;20.85;;;7.70;99.90;;;;;;5004655;28;20500;-35
2023/12/13 07:17:22;;;;;;;29.20;16.30;;;7.70;99.90;;;;;;5007849;28;20049;-34
2023/12/13 07:19:48;;;;;;;29.42;19.35;;;7.70;99.90;;;;;;5003502;28;20057;-35
2023/12/13 07:22:14;;;;;;;33.47;21.10;;;7.70;99.90;;;;;;5008018;28;20057;-35
2023/12/13 07:24:40;;;;;;;44.58;32.28;;;7.70;99.90;;;;;;5007083;28;20064;-35
2023/12/13 07:27:05;;;;;;;41.28;27.92;;;7.70;99.90;;;;;;5010749;28;20149;-34
2023/12/13 07:29:33;;;;;;;33.47;22.70;;;7.70;99.90;;;;;;5006131;28;20054;-40
2023/12/13 07:31:59;;;;;;;30.55;20.73;;;7.70;99.90;;;;;;5008303;28;20504;-35
2023/12/13 07:34:24;;;;;;;40.75;35.17;;;7.70;99.90;;;;;;5007654;28;20053;-35
2023/12/13 07:36:53;;;;;;;29.80;15.40;;;7.70;99.90;;;;;;5006178;28;20175;-48
2023/12/13 07:39:19;;;;;;;38.42;23.45;;;7.70;99.90;;;;;;5014305;28;20050;-35
2023/12/13 07:41:44;;;;;;;100.65;66.80;;;7.70;99.90;;;;;;5003650;28;20558;-35
2023/12/13 07:44:10;;;;;;;64.50;42.53;;;7.70;99.90;;;;;;5007682;28;20108;-35
2023/12/13 07:46:38;;;;;;;54.85;35.25;;;7.70;99.90;;;;;;4997785;28;20875;-35
2023/12/13 07:49:04;;;;;;;44.40;28.02;;;7.70;99.90;;;;;;5003050;28;20050;-35
2023/12/13 07:51:33;;;;;;;30.95;16.13;;;7.70;99.90;;;;;;4999111;28;20433;-34
2023/12/13 07:54:00;;;;;;;23.25;14.00;;;7.70;99.90;;;;;;5003581;28;20057;-35
2023/12/13 07:56:26;;;;;;;31.52;14.70;;;7.70;99.90;;;;;;4995649;28;20050;-36
2023/12/13 13:15:41;;;;;;;20.56;10.60;;;10.10;99.90;;;;;;6291327;22;1723806;-83
2023/12/13 13:18:06;;;;;;;17.33;10.65;;;10.10;99.90;;;;;;6191699;23;20153;-85
2023/12/13 13:20:32;;;;;;;19.92;10.23;;;10.10;99.90;;;;;;6123734;23;20025;-83
2023/12/13 13:22:58;;;;;;;19.58;11.27;;;10.00;99.90;;;;;;6125102;23;20028;-83
2023/12/13 13:25:24;;;;;;;15.23;8.73;;;10.00;99.90;;;;;;6140341;23;20462;-35
2023/12/13 13:27:53;;;;;;;19.73;9.85;;;10.00;99.90;;;;;;6172627;23;20009;-36
2023/12/13 13:30:19;;;;;;;17.13;9.55;;;9.90;99.90;;;;;;6174185;23;20016;-34
2023/12/13 13:32:45;;;;;;;14.95;9.40;;;9.90;99.90;;;;;;6176044;23;20304;-35
2023/12/13 13:35:11;;;;;;;19.17;10.07;;;9.90;99.90;;;;;;6174747;23;20025;-34
2023/12/13 13:37:37;;;;;;;18.70;9.75;;;9.90;99.90;;;;;;6148753;23;20048;-34
2023/12/13 13:40:04;;;;;;;17.95;9.18;;;9.90;99.90;;;;;;6149788;23;20048;-36
2023/12/13 13:42:30;;;;;;;15.02;9.52;;;9.90;99.90;;;;;;6172806;23;20021;-36
2023/12/13 13:44:56;;;;;;;19.65;10.27;;;9.90;99.90;;;;;;6175837;23;20021;-35
2023/12/13 13:47:22;;;;;;;16.95;8.98;;;9.90;99.90;;;;;;6174437;23;20043;-36
2023/12/13 13:49:47;;;;;;;16.80;9.63;;;9.90;99.90;;;;;;6176288;23;20017;-35
2023/12/13 13:52:13;;;;;;;16.92;9.70;;;9.90;99.90;;;;;;6175823;23;20048;-35
2023/12/13 13:54:39;;;;;;;16.15;10.23;;;9.90;99.90;;;;;;6176729;23;20100;-36
2023/12/13 13:57:06;;;;;;;18.35;10.25;;;9.90;99.90;;;;;;6176884;23;20468;-35
2023/12/13 13:59:32;;;;;;;14.63;8.80;;;9.90;99.90;;;;;;6174384;23;20025;-36
2023/12/13 14:01:58;;;;;;;19.90;9.77;;;9.80;99.90;;;;;;6178072;23;20332;-37
2023/12/13 14:04:24;;;;;;;16.92;9.80;;;9.80;99.90;;;;;;6177732;23;20451;-35
2023/12/13 14:06:50;;;;;;;18.90;9.85;;;9.80;99.90;;;;;;6178834;23;20029;-36
2023/12/13 14:09:16;;;;;;;16.65;9.82;;;9.80;99.90;;;;;;6177078;23;20056;-37
2023/12/13 14:11:42;;;;;;;20.80;10.10;;;9.80;99.90;;;;;;6176420;23;20021;-38
2023/12/13 14:14:08;;;;;;;18.67;10.07;;;9.70;99.90;;;;;;6176248;23;20025;-36
2023/12/13 14:16:33;;;;;;;17.42;10.25;;;9.70;99.90;;;;;;6177457;23;20055;-36
2023/12/13 14:19:01;;;;;;;20.60;11.15;;;9.70;99.90;;;;;;6176329;23;20024;-35
2023/12/13 14:21:27;;;;;;;19.42;11.57;;;9.60;99.90;;;;;;6178192;23;20109;-37
2023/12/13 14:23:52;;;;;;;26.05;11.60;;;9.60;99.90;;;;;;6178992;23;20226;-37
2023/12/13 14:26:18;;;;;;;20.27;10.93;;;9.50;99.90;;;;;;6172930;23;20788;-37
2023/12/13 14:28:44;;;;;;;20.80;11.35;;;9.50;99.90;;;;;;6176724;23;20475;-37
2023/12/13 14:31:10;;;;;;;23.48;11.32;;;9.50;99.90;;;;;;6174544;23;20104;-37
2023/12/13 14:33:36;;;;;;;23.40;11.48;;;9.40;99.90;;;;;;6175124;23;20554;-37
2023/12/13 14:36:02;;;;;;;22.33;11.45;;;9.40;99.90;;;;;;6175861;23;20025;-37
2023/12/13 14:38:28;;;;;;;21.80;12.05;;;9.40;99.90;;;;;;6174013;23;20554;-38
2023/12/13 14:40:54;;;;;;;22.23;12.80;;;9.40;99.90;;;;;;6175272;23;20025;-37
2023/12/13 14:43:20;;;;;;;25.98;11.95;;;9.30;99.90;;;;;;6173509;23;20021;-37
2023/12/13 14:45:48;;;;;;;21.23;12.20;;;9.30;99.90;;;;;;6174246;23;20364;-37
2023/12/13 14:48:14;;;;;;;28.15;13.43;;;9.30;99.90;;;;;;6175579;23;20025;-37
2023/12/13 14:50:43;;;;;;;23.25;12.25;;;9.20;99.90;;;;;;6149838;23;20048;-36
2023/12/13 14:53:10;;;;;;;21.50;12.13;;;9.20;99.90;;;;;;6174890;23;20028;-37
2023/12/13 14:55:36;;;;;;;25.27;12.88;;;9.20;99.90;;;;;;6177396;23;20017;-37
2023/12/13 14:58:02;;;;;;;28.90;12.85;;;9.20;99.90;;;;;;6172869;23;20020;-37
2023/12/13 15:00:28;;;;;;;26.95;12.88;;;9.20;99.90;;;;;;6175290;23;20403;-37
2023/12/13 15:02:56;;;;;;;22.40;11.63;;;9.20;99.90;;;;;;6175463;23;20032;-35
2023/12/13 15:05:21;;;;;;;23.05;13.05;;;9.20;99.90;;;;;;6172386;23;20487;-35
2023/12/13 15:07:49;;;;;;;21.75;12.18;;;9.20;99.90;;;;;;6176767;23;20025;-36
2023/12/13 15:10:14;;;;;;;28.83;12.55;;;9.20;99.90;;;;;;6175066;23;20043;-37
2023/12/13 15:12:41;;;;;;;24.80;12.38;;;9.10;99.90;;;;;;6174033;23;20021;-35
2023/12/13 15:15:07;;;;;;;23.73;11.77;;;9.10;99.90;;;;;;6173218;23;20631;-34
2023/12/13 15:17:33;;;;;;;21.85;11.48;;;9.10;99.90;;;;;;6176283;23;20025;-37
2023/12/13 15:19:59;;;;;;;24.60;12.23;;;9.10;99.90;;;;;;6175211;23;20036;-37
2023/12/13 15:22:25;;;;;;;32.72;13.35;;;9.10;99.90;;;;;;6148863;23;20024;-36
2023/12/13 15:24:51;;;;;;;23.80;12.68;;;9.10;99.90;;;;;;6174882;23;20025;-37
2023/12/13 15:27:17;;;;;;;27.45;13.57;;;9.10;99.90;;;;;;6176967;23;20028;-35
2023/12/13 15:29:43;;;;;;;25.67;12.07;;;9.00;99.90;;;;;;6177664;23;20332;-36
2023/12/13 15:32:13;;;;;;;28.15;13.68;;;9.00;99.90;;;;;;6177566;23;20456;-36
2023/12/13 15:34:42;;;;;;;29.45;12.88;;;9.00;99.90;;;;;;6176558;23;20033;-35
2023/12/13 15:37:09;;;;;;;24.00;12.80;;;9.00;99.90;;;;;;6175491;23;20301;-37
2023/12/13 15:39:34;;;;;;;25.85;13.00;;;8.90;99.90;;;;;;6178377;23;20013;-36
2023/12/13 15:42:00;;;;;;;29.60;13.60;;;8.90;99.90;;;;;;6175723;23;20055;-36
2023/12/13 15:44:27;;;;;;;32.28;13.07;;;8.90;99.90;;;;;;6177287;23;20029;-36
2023/12/13 15:46:53;;;;;;;25.75;12.40;;;8.90;99.90;;;;;;6177192;23;20020;-36
2023/12/13 15:49:18;;;;;;;29.85;13.32;;;8.90;99.90;;;;;;6175977;23;20025;-36
2023/12/13 15:51:45;;;;;;;31.33;13.63;;;8.90;99.90;;;;;;6177457;23;20082;-37
2023/12/13 15:54:11;;;;;;;27.08;12.70;;;8.90;99.90;;;;;;6177553;23;20029;-36
2023/12/13 15:56:36;;;;;;;26.45;13.00;;;8.90;99.90;;;;;;6178712;23;20367;-36
2023/12/13 15:59:02;;;;;;;29.83;14.02;;;8.80;99.90;;;;;;6177837;23;20025;-36
2023/12/13 16:01:28;;;;;;;29.30;13.38;;;8.80;99.90;;;;;;6178534;23;20059;-36
2023/12/13 16:03:53;;;;;;;29.25;13.52;;;8.80;99.90;;;;;;6177549;23;20079;-35
2023/12/13 16:06:21;;;;;;;27.00;14.07;;;8.80;99.90;;;;;;6177318;23;20029;-34
2023/12/13 16:08:46;;;;;;;35.42;14.63;;;8.80;99.90;;;;;;6178397;23;20029;-34
2023/12/13 16:11:14;;;;;;;27.83;14.15;;;8.80;99.90;;;;;;6177164;23;20013;-36
2023/12/13 16:13:40;;;;;;;29.45;14.13;;;8.80;99.90;;;;;;6177103;23;20017;-34
2023/12/13 16:16:06;;;;;;;25.33;13.45;;;8.70;99.90;;;;;;6149831;23;20483;-34
2023/12/13 16:18:32;;;;;;;27.60;13.75;;;8.70;99.90;;;;;;6152163;23;20446;-34
2023/12/13 16:20:59;;;;;;;28.17;13.88;;;8.70;99.90;;;;;;6175092;23;20072;-34
2023/12/13 16:23:24;;;;;;;29.42;14.10;;;8.70;99.90;;;;;;6150437;23;20103;-34
2023/12/13 16:25:51;;;;;;;26.85;13.95;;;8.70;99.90;;;;;;6177036;23;20045;-34
2023/12/13 16:28:16;;;;;;;29.23;13.95;;;8.70;99.90;;;;;;6176439;23;20021;-34
2023/12/13 16:30:43;;;;;;;23.85;12.68;;;8.60;99.90;;;;;;6178245;23;20025;-33
2023/12/13 16:33:11;;;;;;;21.52;12.45;;;8.60;99.90;;;;;;6177899;23;20495;-34
2023/12/13 16:35:36;;;;;;;20.42;10.48;;;8.60;99.90;;;;;;6180862;23;20020;-34
2023/12/13 16:38:03;;;;;;;19.15;9.35;;;8.60;99.90;;;;;;6180238;23;20460;-35
2023/12/13 16:40:28;;;;;;;16.63;8.25;;;8.50;99.90;;;;;;6152660;23;20013;-34
2023/12/13 16:42:58;;;;;;;17.15;8.35;;;8.50;99.90;;;;;;6154401;23;20020;-36
2023/12/13 16:45:24;;;;;;;13.07;5.88;;;8.50;99.90;;;;;;6178348;23;20108;-35
2023/12/13 16:47:49;;;;;;;11.10;5.82;;;8.50;99.90;;;;;;6179316;23;20091;-35
2023/12/13 16:50:15;;;;;;;7.10;4.53;;;8.40;99.90;;;;;;6177844;23;20016;-34
2023/12/13 16:52:41;;;;;;;8.35;4.78;;;8.40;99.90;;;;;;6180640;23;20017;-34
2023/12/13 16:55:07;;;;;;;7.32;3.53;;;8.30;99.90;;;;;;6179862;23;20024;-35
2023/12/13 16:57:33;;;;;;;6.85;3.90;;;8.30;99.90;;;;;;6177942;23;20413;-34
2023/12/13 16:59:59;;;;;;;6.75;3.67;;;8.20;99.90;;;;;;6179769;23;20145;-34
2023/12/13 17:02:24;;;;;;;8.10;3.58;;;8.20;99.90;;;;;;6178401;23;20366;-34
2023/12/13 17:04:50;;;;;;;5.80;3.45;;;8.10;99.90;;;;;;6178939;23;20021;-34
2023/12/13 17:07:22;;;;;;;5.75;3.22;;;8.10;99.90;;;;;;6176685;23;20025;-43
2023/12/13 17:09:52;;;;;;;7.38;3.58;;;8.10;99.90;;;;;;6179898;23;20021;-34
2023/12/13 17:12:18;;;;;;;6.07;3.22;;;8.00;99.90;;;;;;6179152;23;20025;-35
2023/12/13 17:14:44;;;;;;;4.47;2.78;;;7.90;99.90;;;;;;6180570;23;20025;-35
2023/12/13 17:17:10;;;;;;;5.10;3.30;;;7.90;99.90;;;;;;6181656;23;20456;-34
2023/12/13 17:19:35;;;;;;;4.97;3.15;;;7.90;99.90;;;;;;6149824;23;20072;-34
2023/12/13 17:22:01;;;;;;;5.32;3.60;;;7.80;99.90;;;;;;6151954;23;20052;-34
2023/12/13 17:24:31;;;;;;;4.65;2.83;;;7.80;99.90;;;;;;6151167;23;20029;-34
2023/12/13 17:27:00;;;;;;;5.25;3.70;;;7.80;99.90;;;;;;6156506;23;20021;-34
2023/12/13 17:29:26;;;;;;;4.88;2.92;;;7.70;99.90;;;;;;6121512;23;20029;-34
2023/12/13 17:31:51;;;;;;;5.57;3.45;;;7.70;99.90;;;;;;6149729;23;20115;-34
2023/12/13 17:34:20;;;;;;;5.13;3.28;;;7.60;99.90;;;;;;6149901;23;20044;-34
2023/12/13 17:36:49;;;;;;;4.45;3.05;;;7.60;99.90;;;;;;6121936;23;20022;-34
2023/12/13 17:39:15;;;;;;;5.40;2.70;;;7.60;99.90;;;;;;6149002;23;20049;-34
2023/12/13 17:41:41;;;;;;;3.88;2.47;;;7.60;99.90;;;;;;6149909;23;20416;-34
2023/12/13 17:44:07;;;;;;;3.47;2.55;;;7.60;99.90;;;;;;6149430;23;20049;-34
2023/12/13 17:46:37;;;;;;;4.20;2.50;;;7.50;99.90;;;;;;6148493;23;20024;-35
2023/12/13 17:49:03;;;;;;;4.43;2.15;;;7.50;99.90;;;;;;6149977;23;20017;-35
2023/12/13 17:51:29;;;;;;;5.22;2.53;;;7.40;99.90;;;;;;6124205;23;20351;-35
2023/12/13 17:53:55;;;;;;;5.18;2.58;;;7.40;99.90;;;;;;6146978;23;20532;-35